sensor_id;sensor_type;location;lat;lon;timestamp;P1;durP1;ratioP1;P2;durP2;ratioP2
18224;SDS011;9237;48.590;8.854;2023-03-22T00:01:35;0.80;;;0.80;;
18224;SDS011;9237;48.590;8.854;2023-03-22T00:04:04;0.80;;;0.80;;
18224;SDS011;9237;48.590;8.854;2023-03-22T00:06:31;0.80;;;0.80;;
18224;SDS011;9237;48.590;8.854;2023-03-22T00:08:59;0.70;;;0.70;;
18224;SDS011;9237;48.590;8.854;2023-03-22T00:11:26;0.80;;;0.80;;
18224;SDS011;9237;48.590;8.854;2023-03-22T00:13:53;0.80;;;0.80;;
18224;SDS011;9237;48.590;8.854;2023-03-22T00:16:20;0.70;;;0.70;;
18224;SDS011;9237;48.590;8.854;2023-03-22T00:18:47;0.83;;;0.83;;
18224;SDS011;9237;48.590;8.854;2023-03-22T00:21:14;0.80;;;0.80;;
18224;SDS011;9237;48.590;8.854;2023-03-22T00:23:41;0.80;;;0.80;;
18224;SDS011;9237;48.590;8.854;2023-03-22T00:26:10;0.80;;;0.80;;
18224;SDS011;9237;48.590;8.854;2023-03-22T00:28:38;0.80;;;0.80;;
18224;SDS011;9237;48.590;8.854;2023-03-22T00:31:05;0.80;;;0.80;;
18224;SDS011;9237;48.590;8.854;2023-03-22T00:33:33;0.70;;;0.70;;
18224;SDS011;9237;48.590;8.854;2023-03-22T00:36:01;0.70;;;0.70;;
18224;SDS011;9237;48.590;8.854;2023-03-22T00:38:29;0.80;;;0.80;;
18224;SDS011;9237;48.590;8.854;2023-03-22T00:41:04;0.80;;;0.80;;
18224;SDS011;9237;48.590;8.854;2023-03-22T00:43:33;0.70;;;0.70;;
18224;SDS011;9237;48.590;8.854;2023-03-22T00:46:00;0.70;;;0.70;;
18224;SDS011;9237;48.590;8.854;2023-03-22T00:48:27;0.70;;;0.70;;
18224;SDS011;9237;48.590;8.854;2023-03-22T00:50:55;0.70;;;0.70;;
18224;SDS011;9237;48.590;8.854;2023-03-22T00:53:22;0.70;;;0.70;;
18224;SDS011;9237;48.590;8.854;2023-03-22T00:55:50;0.90;;;0.90;;
18224;SDS011;9237;48.590;8.854;2023-03-22T00:58:17;0.70;;;0.70;;
18224;SDS011;9237;48.590;8.854;2023-03-22T01:00:46;0.70;;;0.70;;
18224;SDS011;9237;48.590;8.854;2023-03-22T01:03:13;0.70;;;0.70;;
18224;SDS011;9237;48.590;8.854;2023-03-22T01:05:40;0.80;;;0.80;;
18224;SDS011;9237;48.590;8.854;2023-03-22T01:08:09;0.80;;;0.80;;
18224;SDS011;9237;48.590;8.854;2023-03-22T01:10:37;0.70;;;0.70;;
18224;SDS011;9237;48.590;8.854;2023-03-22T01:13:05;0.80;;;0.80;;
18224;SDS011;9237;48.590;8.854;2023-03-22T01:15:33;0.70;;;0.70;;
18224;SDS011;9237;48.590;8.854;2023-03-22T01:18:02;0.80;;;0.80;;
18224;SDS011;9237;48.590;8.854;2023-03-22T01:20:29;0.80;;;0.80;;
18224;SDS011;9237;48.590;8.854;2023-03-22T01:22:55;0.70;;;0.70;;
18224;SDS011;9237;48.590;8.854;2023-03-22T01:25:22;0.80;;;0.80;;
18224;SDS011;9237;48.590;8.854;2023-03-22T01:27:49;0.90;;;0.90;;
18224;SDS011;9237;48.590;8.854;2023-03-22T01:30:16;0.80;;;0.80;;
18224;SDS011;9237;48.590;8.854;2023-03-22T01:32:42;0.80;;;0.80;;
18224;SDS011;9237;48.590;8.854;2023-03-22T01:35:11;0.90;;;0.90;;
18224;SDS011;9237;48.590;8.854;2023-03-22T01:37:37;0.90;;;0.90;;
18224;SDS011;9237;48.590;8.854;2023-03-22T01:40:05;0.90;;;0.90;;
18224;SDS011;9237;48.590;8.854;2023-03-22T01:42:33;0.90;;;0.90;;
18224;SDS011;9237;48.590;8.854;2023-03-22T01:47:59;0.80;;;0.80;;
18224;SDS011;9237;48.590;8.854;2023-03-22T01:50:31;0.90;;;0.90;;
18224;SDS011;9237;48.590;8.854;2023-03-22T01:52:58;0.80;;;0.80;;
18224;SDS011;9237;48.590;8.854;2023-03-22T01:55:29;0.90;;;0.90;;
18224;SDS011;9237;48.590;8.854;2023-03-22T01:57:57;0.80;;;0.80;;
18224;SDS011;9237;48.590;8.854;2023-03-22T02:00:25;0.80;;;0.80;;
18224;SDS011;9237;48.590;8.854;2023-03-22T02:02:51;0.90;;;0.90;;
18224;SDS011;9237;48.590;8.854;2023-03-22T02:05:19;0.80;;;0.80;;
18224;SDS011;9237;48.590;8.854;2023-03-22T02:07:48;0.80;;;0.80;;
18224;SDS011;9237;48.590;8.854;2023-03-22T02:10:16;0.90;;;0.90;;
18224;SDS011;9237;48.590;8.854;2023-03-22T02:12:47;0.70;;;0.70;;
18224;SDS011;9237;48.590;8.854;2023-03-22T02:15:36;0.80;;;0.80;;
18224;SDS011;9237;48.590;8.854;2023-03-22T02:18:11;0.83;;;0.83;;
18224;SDS011;9237;48.590;8.854;2023-03-22T02:23:53;0.70;;;0.70;;
18224;SDS011;9237;48.590;8.854;2023-03-22T02:29:41;0.80;;;0.80;;
18224;SDS011;9237;48.590;8.854;2023-03-22T02:32:25;0.90;;;0.90;;
18224;SDS011;9237;48.590;8.854;2023-03-22T02:35:30;0.90;;;0.90;;
18224;SDS011;9237;48.590;8.854;2023-03-22T02:38:10;0.70;;;0.70;;
18224;SDS011;9237;48.590;8.854;2023-03-22T02:40:49;0.87;;;0.87;;
18224;SDS011;9237;48.590;8.854;2023-03-22T02:43:24;0.90;;;0.90;;
18224;SDS011;9237;48.590;8.854;2023-03-22T02:46:03;0.90;;;0.90;;
18224;SDS011;9237;48.590;8.854;2023-03-22T02:48:35;0.70;;;0.70;;
18224;SDS011;9237;48.590;8.854;2023-03-22T02:51:10;0.70;;;0.70;;
18224;SDS011;9237;48.590;8.854;2023-03-22T02:53:44;0.87;;;0.87;;
18224;SDS011;9237;48.590;8.854;2023-03-22T02:56:15;0.70;;;0.70;;
18224;SDS011;9237;48.590;8.854;2023-03-22T02:58:47;0.83;;;0.83;;
18224;SDS011;9237;48.590;8.854;2023-03-22T03:01:18;0.80;;;0.80;;
18224;SDS011;9237;48.590;8.854;2023-03-22T03:03:48;0.90;;;0.90;;
18224;SDS011;9237;48.590;8.854;2023-03-22T03:06:19;0.70;;;0.70;;
18224;SDS011;9237;48.590;8.854;2023-03-22T03:08:49;0.90;;;0.90;;
18224;SDS011;9237;48.590;8.854;2023-03-22T03:11:19;0.90;;;0.90;;
18224;SDS011;9237;48.590;8.854;2023-03-22T03:13:46;0.80;;;0.80;;
18224;SDS011;9237;48.590;8.854;2023-03-22T03:16:13;0.80;;;0.80;;
18224;SDS011;9237;48.590;8.854;2023-03-22T03:18:42;0.70;;;0.70;;
18224;SDS011;9237;48.590;8.854;2023-03-22T03:21:19;0.80;;;0.80;;
18224;SDS011;9237;48.590;8.854;2023-03-22T03:23:55;0.80;;;0.80;;
18224;SDS011;9237;48.590;8.854;2023-03-22T03:26:31;0.90;;;0.90;;
18224;SDS011;9237;48.590;8.854;2023-03-22T03:29:06;0.83;;;0.83;;
18224;SDS011;9237;48.590;8.854;2023-03-22T03:31:41;0.80;;;0.80;;
18224;SDS011;9237;48.590;8.854;2023-03-22T03:34:15;0.70;;;0.70;;
18224;SDS011;9237;48.590;8.854;2023-03-22T03:36:45;0.80;;;0.80;;
18224;SDS011;9237;48.590;8.854;2023-03-22T03:39:17;0.80;;;0.80;;
18224;SDS011;9237;48.590;8.854;2023-03-22T03:41:47;0.90;;;0.90;;
18224;SDS011;9237;48.590;8.854;2023-03-22T03:44:15;0.80;;;0.80;;
18224;SDS011;9237;48.590;8.854;2023-03-22T03:46:44;1.00;;;1.00;;
18224;SDS011;9237;48.590;8.854;2023-03-22T03:49:12;0.87;;;0.87;;
18224;SDS011;9237;48.590;8.854;2023-03-22T03:51:45;0.90;;;0.90;;
18224;SDS011;9237;48.590;8.854;2023-03-22T03:54:14;0.90;;;0.90;;
18224;SDS011;9237;48.590;8.854;2023-03-22T03:56:41;0.90;;;0.90;;
18224;SDS011;9237;48.590;8.854;2023-03-22T03:59:09;0.90;;;0.90;;
18224;SDS011;9237;48.590;8.854;2023-03-22T04:01:36;0.90;;;0.90;;
18224;SDS011;9237;48.590;8.854;2023-03-22T04:04:04;0.80;;;0.80;;
18224;SDS011;9237;48.590;8.854;2023-03-22T04:06:31;0.90;;;0.90;;
18224;SDS011;9237;48.590;8.854;2023-03-22T04:08:59;0.70;;;0.70;;
18224;SDS011;9237;48.590;8.854;2023-03-22T04:11:25;0.87;;;0.87;;
18224;SDS011;9237;48.590;8.854;2023-03-22T04:13:52;0.83;;;0.83;;
18224;SDS011;9237;48.590;8.854;2023-03-22T04:16:20;0.90;;;0.90;;
18224;SDS011;9237;48.590;8.854;2023-03-22T04:18:49;0.70;;;0.70;;
18224;SDS011;9237;48.590;8.854;2023-03-22T04:21:16;0.83;;;0.83;;
18224;SDS011;9237;48.590;8.854;2023-03-22T04:23:43;0.80;;;0.80;;
18224;SDS011;9237;48.590;8.854;2023-03-22T04:26:11;0.97;;;0.97;;
18224;SDS011;9237;48.590;8.854;2023-03-22T04:28:38;0.90;;;0.90;;
18224;SDS011;9237;48.590;8.854;2023-03-22T04:31:05;0.90;;;0.90;;
18224;SDS011;9237;48.590;8.854;2023-03-22T04:33:34;0.80;;;0.80;;
18224;SDS011;9237;48.590;8.854;2023-03-22T04:36:04;0.80;;;0.80;;
18224;SDS011;9237;48.590;8.854;2023-03-22T04:38:34;0.90;;;0.90;;
18224;SDS011;9237;48.590;8.854;2023-03-22T04:41:03;0.90;;;0.90;;
18224;SDS011;9237;48.590;8.854;2023-03-22T04:43:31;0.80;;;0.80;;
18224;SDS011;9237;48.590;8.854;2023-03-22T04:45:58;0.80;;;0.80;;
18224;SDS011;9237;48.590;8.854;2023-03-22T04:48:26;0.93;;;0.93;;
18224;SDS011;9237;48.590;8.854;2023-03-22T04:50:54;0.80;;;0.80;;
18224;SDS011;9237;48.590;8.854;2023-03-22T04:53:22;0.90;;;0.90;;
18224;SDS011;9237;48.590;8.854;2023-03-22T04:55:51;0.80;;;0.80;;
18224;SDS011;9237;48.590;8.854;2023-03-22T04:58:20;0.80;;;0.80;;
18224;SDS011;9237;48.590;8.854;2023-03-22T05:00:48;1.00;;;1.00;;
18224;SDS011;9237;48.590;8.854;2023-03-22T05:03:16;0.83;;;0.83;;
18224;SDS011;9237;48.590;8.854;2023-03-22T05:05:50;0.90;;;0.90;;
18224;SDS011;9237;48.590;8.854;2023-03-22T05:08:20;0.90;;;0.90;;
18224;SDS011;9237;48.590;8.854;2023-03-22T05:10:49;0.80;;;0.80;;
18224;SDS011;9237;48.590;8.854;2023-03-22T05:13:17;0.90;;;0.90;;
18224;SDS011;9237;48.590;8.854;2023-03-22T05:15:44;0.90;;;0.90;;
18224;SDS011;9237;48.590;8.854;2023-03-22T05:18:13;1.00;;;1.00;;
18224;SDS011;9237;48.590;8.854;2023-03-22T05:20:40;0.77;;;0.77;;
18224;SDS011;9237;48.590;8.854;2023-03-22T05:23:06;0.93;;;0.93;;
18224;SDS011;9237;48.590;8.854;2023-03-22T05:25:35;1.00;;;1.00;;
18224;SDS011;9237;48.590;8.854;2023-03-22T05:28:03;1.00;;;1.00;;
18224;SDS011;9237;48.590;8.854;2023-03-22T05:30:31;1.00;;;1.00;;
18224;SDS011;9237;48.590;8.854;2023-03-22T05:32:58;0.80;;;0.80;;
18224;SDS011;9237;48.590;8.854;2023-03-22T05:35:27;0.90;;;0.90;;
18224;SDS011;9237;48.590;8.854;2023-03-22T05:37:54;0.90;;;0.90;;
18224;SDS011;9237;48.590;8.854;2023-03-22T05:40:21;1.00;;;1.00;;
18224;SDS011;9237;48.590;8.854;2023-03-22T05:42:53;0.97;;;0.97;;
18224;SDS011;9237;48.590;8.854;2023-03-22T05:45:21;0.90;;;0.90;;
18224;SDS011;9237;48.590;8.854;2023-03-22T05:47:48;0.90;;;0.90;;
18224;SDS011;9237;48.590;8.854;2023-03-22T05:50:17;1.00;;;1.00;;
18224;SDS011;9237;48.590;8.854;2023-03-22T05:52:46;0.90;;;0.90;;
18224;SDS011;9237;48.590;8.854;2023-03-22T05:55:14;1.00;;;1.00;;
18224;SDS011;9237;48.590;8.854;2023-03-22T05:57:42;1.00;;;1.00;;
18224;SDS011;9237;48.590;8.854;2023-03-22T06:00:13;0.90;;;0.90;;
18224;SDS011;9237;48.590;8.854;2023-03-22T06:02:41;0.90;;;0.90;;
18224;SDS011;9237;48.590;8.854;2023-03-22T06:05:09;0.90;;;0.90;;
18224;SDS011;9237;48.590;8.854;2023-03-22T06:07:36;0.90;;;0.90;;
18224;SDS011;9237;48.590;8.854;2023-03-22T06:10:03;0.83;;;0.83;;
18224;SDS011;9237;48.590;8.854;2023-03-22T06:12:31;0.90;;;0.90;;
18224;SDS011;9237;48.590;8.854;2023-03-22T06:14:58;0.93;;;0.93;;
18224;SDS011;9237;48.590;8.854;2023-03-22T06:17:27;0.80;;;0.80;;
18224;SDS011;9237;48.590;8.854;2023-03-22T06:19:53;0.90;;;0.90;;
18224;SDS011;9237;48.590;8.854;2023-03-22T06:22:20;0.80;;;0.80;;
18224;SDS011;9237;48.590;8.854;2023-03-22T06:24:48;0.80;;;0.80;;
18224;SDS011;9237;48.590;8.854;2023-03-22T06:27:15;0.90;;;0.90;;
18224;SDS011;9237;48.590;8.854;2023-03-22T06:29:42;0.80;;;0.80;;
18224;SDS011;9237;48.590;8.854;2023-03-22T06:32:13;0.70;;;0.70;;
18224;SDS011;9237;48.590;8.854;2023-03-22T06:34:41;0.70;;;0.70;;
18224;SDS011;9237;48.590;8.854;2023-03-22T06:37:08;0.80;;;0.80;;
18224;SDS011;9237;48.590;8.854;2023-03-22T06:39:35;0.80;;;0.80;;
18224;SDS011;9237;48.590;8.854;2023-03-22T06:42:02;1.00;;;1.00;;
18224;SDS011;9237;48.590;8.854;2023-03-22T06:44:29;0.80;;;0.80;;
18224;SDS011;9237;48.590;8.854;2023-03-22T06:46:56;0.70;;;0.70;;
18224;SDS011;9237;48.590;8.854;2023-03-22T06:49:22;0.80;;;0.80;;
18224;SDS011;9237;48.590;8.854;2023-03-22T06:51:51;0.70;;;0.70;;
18224;SDS011;9237;48.590;8.854;2023-03-22T06:54:18;0.70;;;0.70;;
18224;SDS011;9237;48.590;8.854;2023-03-22T06:56:46;0.80;;;0.80;;
18224;SDS011;9237;48.590;8.854;2023-03-22T06:59:13;0.80;;;0.80;;
18224;SDS011;9237;48.590;8.854;2023-03-22T07:01:39;0.80;;;0.80;;
18224;SDS011;9237;48.590;8.854;2023-03-22T07:04:06;0.80;;;0.80;;
18224;SDS011;9237;48.590;8.854;2023-03-22T07:06:33;0.80;;;0.80;;
18224;SDS011;9237;48.590;8.854;2023-03-22T07:09:01;0.70;;;0.70;;
18224;SDS011;9237;48.590;8.854;2023-03-22T07:11:28;0.73;;;0.73;;
18224;SDS011;9237;48.590;8.854;2023-03-22T07:13:55;0.70;;;0.70;;
18224;SDS011;9237;48.590;8.854;2023-03-22T07:16:22;0.80;;;0.80;;
18224;SDS011;9237;48.590;8.854;2023-03-22T07:18:48;0.70;;;0.70;;
18224;SDS011;9237;48.590;8.854;2023-03-22T07:21:15;0.70;;;0.70;;
18224;SDS011;9237;48.590;8.854;2023-03-22T07:23:42;0.70;;;0.70;;
18224;SDS011;9237;48.590;8.854;2023-03-22T07:26:10;0.70;;;0.70;;
18224;SDS011;9237;48.590;8.854;2023-03-22T07:28:38;0.70;;;0.70;;
18224;SDS011;9237;48.590;8.854;2023-03-22T07:31:09;0.70;;;0.70;;
18224;SDS011;9237;48.590;8.854;2023-03-22T07:33:38;0.70;;;0.70;;
18224;SDS011;9237;48.590;8.854;2023-03-22T07:36:05;0.70;;;0.70;;
18224;SDS011;9237;48.590;8.854;2023-03-22T07:38:33;0.70;;;0.70;;
18224;SDS011;9237;48.590;8.854;2023-03-22T07:41:01;0.70;;;0.70;;
18224;SDS011;9237;48.590;8.854;2023-03-22T07:43:30;0.70;;;0.70;;
18224;SDS011;9237;48.590;8.854;2023-03-22T07:45:56;0.70;;;0.70;;
18224;SDS011;9237;48.590;8.854;2023-03-22T07:48:23;0.70;;;0.70;;
18224;SDS011;9237;48.590;8.854;2023-03-22T07:50:53;0.70;;;0.70;;
18224;SDS011;9237;48.590;8.854;2023-03-22T07:53:21;0.70;;;0.70;;
18224;SDS011;9237;48.590;8.854;2023-03-22T07:55:48;0.70;;;0.70;;
18224;SDS011;9237;48.590;8.854;2023-03-22T07:58:15;0.70;;;0.70;;
18224;SDS011;9237;48.590;8.854;2023-03-22T08:00:43;0.60;;;0.60;;
18224;SDS011;9237;48.590;8.854;2023-03-22T08:03:10;0.60;;;0.60;;
18224;SDS011;9237;48.590;8.854;2023-03-22T08:05:38;0.67;;;0.67;;
18224;SDS011;9237;48.590;8.854;2023-03-22T08:08:05;0.60;;;0.60;;
18224;SDS011;9237;48.590;8.854;2023-03-22T08:10:32;0.60;;;0.60;;
18224;SDS011;9237;48.590;8.854;2023-03-22T08:12:59;0.60;;;0.60;;
18224;SDS011;9237;48.590;8.854;2023-03-22T08:15:26;0.50;;;0.50;;
18224;SDS011;9237;48.590;8.854;2023-03-22T08:17:54;0.60;;;0.60;;
18224;SDS011;9237;48.590;8.854;2023-03-22T08:20:22;0.60;;;0.60;;
18224;SDS011;9237;48.590;8.854;2023-03-22T08:22:51;0.60;;;0.60;;
18224;SDS011;9237;48.590;8.854;2023-03-22T08:25:18;0.70;;;0.70;;
18224;SDS011;9237;48.590;8.854;2023-03-22T08:27:45;0.68;;;0.68;;
18224;SDS011;9237;48.590;8.854;2023-03-22T08:30:13;0.60;;;0.60;;
18224;SDS011;9237;48.590;8.854;2023-03-22T08:32:40;0.63;;;0.63;;
18224;SDS011;9237;48.590;8.854;2023-03-22T08:35:09;0.60;;;0.60;;
18224;SDS011;9237;48.590;8.854;2023-03-22T08:37:36;0.60;;;0.60;;
18224;SDS011;9237;48.590;8.854;2023-03-22T08:40:04;0.60;;;0.60;;
18224;SDS011;9237;48.590;8.854;2023-03-22T08:42:33;0.60;;;0.60;;
18224;SDS011;9237;48.590;8.854;2023-03-22T08:45:00;0.60;;;0.60;;
18224;SDS011;9237;48.590;8.854;2023-03-22T08:47:27;0.60;;;0.60;;
18224;SDS011;9237;48.590;8.854;2023-03-22T08:49:54;0.60;;;0.60;;
18224;SDS011;9237;48.590;8.854;2023-03-22T08:52:22;0.50;;;0.50;;
18224;SDS011;9237;48.590;8.854;2023-03-22T08:54:49;0.50;;;0.50;;
18224;SDS011;9237;48.590;8.854;2023-03-22T08:57:17;0.50;;;0.50;;
18224;SDS011;9237;48.590;8.854;2023-03-22T08:59:45;0.50;;;0.50;;
18224;SDS011;9237;48.590;8.854;2023-03-22T09:02:12;0.50;;;0.50;;
18224;SDS011;9237;48.590;8.854;2023-03-22T09:04:39;0.50;;;0.50;;
18224;SDS011;9237;48.590;8.854;2023-03-22T09:07:06;0.50;;;0.50;;
18224;SDS011;9237;48.590;8.854;2023-03-22T09:09:34;0.50;;;0.50;;
18224;SDS011;9237;48.590;8.854;2023-03-22T09:12:01;0.50;;;0.50;;
18224;SDS011;9237;48.590;8.854;2023-03-22T09:14:28;0.50;;;0.50;;
18224;SDS011;9237;48.590;8.854;2023-03-22T09:16:55;0.50;;;0.50;;
18224;SDS011;9237;48.590;8.854;2023-03-22T09:19:22;0.50;;;0.50;;
18224;SDS011;9237;48.590;8.854;2023-03-22T09:21:48;0.50;;;0.50;;
18224;SDS011;9237;48.590;8.854;2023-03-22T09:24:15;0.50;;;0.50;;
18224;SDS011;9237;48.590;8.854;2023-03-22T09:26:44;0.50;;;0.50;;
18224;SDS011;9237;48.590;8.854;2023-03-22T09:29:11;0.50;;;0.50;;
18224;SDS011;9237;48.590;8.854;2023-03-22T09:31:38;0.50;;;0.50;;
18224;SDS011;9237;48.590;8.854;2023-03-22T09:34:04;0.50;;;0.50;;
18224;SDS011;9237;48.590;8.854;2023-03-22T09:36:31;0.50;;;0.50;;
18224;SDS011;9237;48.590;8.854;2023-03-22T09:38:58;0.50;;;0.50;;
18224;SDS011;9237;48.590;8.854;2023-03-22T09:41:28;0.50;;;0.50;;
18224;SDS011;9237;48.590;8.854;2023-03-22T09:44:02;0.50;;;0.50;;
18224;SDS011;9237;48.590;8.854;2023-03-22T09:46:33;0.50;;;0.50;;
18224;SDS011;9237;48.590;8.854;2023-03-22T09:49:03;0.40;;;0.40;;
18224;SDS011;9237;48.590;8.854;2023-03-22T09:51:35;0.50;;;0.50;;
18224;SDS011;9237;48.590;8.854;2023-03-22T09:54:08;0.50;;;0.50;;
18224;SDS011;9237;48.590;8.854;2023-03-22T09:56:38;0.50;;;0.50;;
18224;SDS011;9237;48.590;8.854;2023-03-22T09:59:09;0.50;;;0.50;;
18224;SDS011;9237;48.590;8.854;2023-03-22T10:01:42;0.60;;;0.60;;
18224;SDS011;9237;48.590;8.854;2023-03-22T10:04:28;0.50;;;0.50;;
18224;SDS011;9237;48.590;8.854;2023-03-22T10:07:17;0.50;;;0.50;;
18224;SDS011;9237;48.590;8.854;2023-03-22T10:09:54;0.50;;;0.50;;
18224;SDS011;9237;48.590;8.854;2023-03-22T10:12:30;0.50;;;0.50;;
18224;SDS011;9237;48.590;8.854;2023-03-22T10:15:05;0.50;;;0.50;;
18224;SDS011;9237;48.590;8.854;2023-03-22T10:17:37;0.50;;;0.50;;
18224;SDS011;9237;48.590;8.854;2023-03-22T10:20:07;0.60;;;0.60;;
18224;SDS011;9237;48.590;8.854;2023-03-22T10:22:44;0.50;;;0.50;;
18224;SDS011;9237;48.590;8.854;2023-03-22T10:25:15;0.50;;;0.50;;
18224;SDS011;9237;48.590;8.854;2023-03-22T10:27:45;0.50;;;0.50;;
18224;SDS011;9237;48.590;8.854;2023-03-22T10:30:17;0.50;;;0.50;;
18224;SDS011;9237;48.590;8.854;2023-03-22T10:32:47;0.50;;;0.50;;
18224;SDS011;9237;48.590;8.854;2023-03-22T10:35:20;0.50;;;0.50;;
18224;SDS011;9237;48.590;8.854;2023-03-22T10:37:47;0.50;;;0.50;;
18224;SDS011;9237;48.590;8.854;2023-03-22T10:40:17;0.50;;;0.50;;
18224;SDS011;9237;48.590;8.854;2023-03-22T10:42:49;0.50;;;0.50;;
18224;SDS011;9237;48.590;8.854;2023-03-22T10:45:20;0.50;;;0.50;;
18224;SDS011;9237;48.590;8.854;2023-03-22T10:47:52;0.60;;;0.60;;
18224;SDS011;9237;48.590;8.854;2023-03-22T10:50:25;0.60;;;0.60;;
18224;SDS011;9237;48.590;8.854;2023-03-22T10:52:55;0.50;;;0.50;;
18224;SDS011;9237;48.590;8.854;2023-03-22T10:55:26;0.50;;;0.50;;
18224;SDS011;9237;48.590;8.854;2023-03-22T10:57:55;0.40;;;0.40;;
18224;SDS011;9237;48.590;8.854;2023-03-22T11:00:28;0.50;;;0.50;;
18224;SDS011;9237;48.590;8.854;2023-03-22T11:02:57;0.50;;;0.50;;
18224;SDS011;9237;48.590;8.854;2023-03-22T11:05:26;0.50;;;0.50;;
18224;SDS011;9237;48.590;8.854;2023-03-22T11:07:55;0.60;;;0.60;;
18224;SDS011;9237;48.590;8.854;2023-03-22T11:10:24;0.50;;;0.50;;
18224;SDS011;9237;48.590;8.854;2023-03-22T11:12:53;0.55;;;0.55;;
18224;SDS011;9237;48.590;8.854;2023-03-22T11:15:38;0.60;;;0.60;;
18224;SDS011;9237;48.590;8.854;2023-03-22T11:18:07;0.60;;;0.60;;
18224;SDS011;9237;48.590;8.854;2023-03-22T11:20:40;0.60;;;0.60;;
18224;SDS011;9237;48.590;8.854;2023-03-22T11:23:09;0.60;;;0.60;;
18224;SDS011;9237;48.590;8.854;2023-03-22T11:25:42;0.50;;;0.50;;
18224;SDS011;9237;48.590;8.854;2023-03-22T11:28:14;0.50;;;0.50;;
18224;SDS011;9237;48.590;8.854;2023-03-22T11:30:57;0.50;;;0.50;;
18224;SDS011;9237;48.590;8.854;2023-03-22T11:33:26;0.60;;;0.60;;
18224;SDS011;9237;48.590;8.854;2023-03-22T11:35:54;0.50;;;0.50;;
18224;SDS011;9237;48.590;8.854;2023-03-22T11:38:26;0.50;;;0.50;;
18224;SDS011;9237;48.590;8.854;2023-03-22T11:40:58;0.47;;;0.47;;
18224;SDS011;9237;48.590;8.854;2023-03-22T11:43:27;0.60;;;0.60;;
18224;SDS011;9237;48.590;8.854;2023-03-22T11:46:00;0.60;;;0.60;;
18224;SDS011;9237;48.590;8.854;2023-03-22T11:48:28;0.60;;;0.60;;
18224;SDS011;9237;48.590;8.854;2023-03-22T11:50:58;0.60;;;0.60;;
18224;SDS011;9237;48.590;8.854;2023-03-22T11:53:32;0.60;;;0.60;;
18224;SDS011;9237;48.590;8.854;2023-03-22T11:56:02;0.60;;;0.60;;
18224;SDS011;9237;48.590;8.854;2023-03-22T11:58:43;0.60;;;0.60;;
18224;SDS011;9237;48.590;8.854;2023-03-22T12:01:24;0.60;;;0.60;;
18224;SDS011;9237;48.590;8.854;2023-03-22T12:03:58;0.50;;;0.50;;
18224;SDS011;9237;48.590;8.854;2023-03-22T12:06:28;0.60;;;0.60;;
18224;SDS011;9237;48.590;8.854;2023-03-22T12:09:00;0.50;;;0.50;;
18224;SDS011;9237;48.590;8.854;2023-03-22T12:11:31;0.60;;;0.60;;
18224;SDS011;9237;48.590;8.854;2023-03-22T12:14:01;0.50;;;0.50;;
18224;SDS011;9237;48.590;8.854;2023-03-22T12:16:37;0.60;;;0.60;;
18224;SDS011;9237;48.590;8.854;2023-03-22T12:19:13;0.60;;;0.60;;
18224;SDS011;9237;48.590;8.854;2023-03-22T12:21:47;0.60;;;0.60;;
18224;SDS011;9237;48.590;8.854;2023-03-22T12:24:19;0.60;;;0.60;;
18224;SDS011;9237;48.590;8.854;2023-03-22T12:26:52;0.60;;;0.60;;
18224;SDS011;9237;48.590;8.854;2023-03-22T12:29:23;0.60;;;0.60;;
18224;SDS011;9237;48.590;8.854;2023-03-22T12:31:54;0.52;;;0.52;;
18224;SDS011;9237;48.590;8.854;2023-03-22T12:34:29;0.57;;;0.57;;
18224;SDS011;9237;48.590;8.854;2023-03-22T12:37:01;0.50;;;0.50;;
18224;SDS011;9237;48.590;8.854;2023-03-22T12:39:32;0.60;;;0.60;;
18224;SDS011;9237;48.590;8.854;2023-03-22T12:42:05;0.60;;;0.60;;
18224;SDS011;9237;48.590;8.854;2023-03-22T12:44:42;0.63;;;0.63;;
18224;SDS011;9237;48.590;8.854;2023-03-22T12:47:17;0.60;;;0.60;;
18224;SDS011;9237;48.590;8.854;2023-03-22T12:49:50;0.60;;;0.60;;
18224;SDS011;9237;48.590;8.854;2023-03-22T12:52:23;0.60;;;0.60;;
18224;SDS011;9237;48.590;8.854;2023-03-22T12:54:55;0.60;;;0.60;;
18224;SDS011;9237;48.590;8.854;2023-03-22T12:57:24;0.53;;;0.53;;
18224;SDS011;9237;48.590;8.854;2023-03-22T12:59:52;0.60;;;0.60;;
18224;SDS011;9237;48.590;8.854;2023-03-22T13:02:26;0.50;;;0.50;;
18224;SDS011;9237;48.590;8.854;2023-03-22T13:04:56;0.70;;;0.70;;
18224;SDS011;9237;48.590;8.854;2023-03-22T13:07:38;0.60;;;0.60;;
18224;SDS011;9237;48.590;8.854;2023-03-22T13:13:33;0.70;;;0.70;;
18224;SDS011;9237;48.590;8.854;2023-03-22T13:19:24;0.60;;;0.60;;
18224;SDS011;9237;48.590;8.854;2023-03-22T13:27:31;0.50;;;0.50;;
18224;SDS011;9237;48.590;8.854;2023-03-22T13:30:01;0.60;;;0.60;;
18224;SDS011;9237;48.590;8.854;2023-03-22T13:32:32;0.60;;;0.60;;
18224;SDS011;9237;48.590;8.854;2023-03-22T13:35:03;0.60;;;0.60;;
18224;SDS011;9237;48.590;8.854;2023-03-22T13:37:46;0.60;;;0.60;;
18224;SDS011;9237;48.590;8.854;2023-03-22T13:40:21;0.60;;;0.60;;
18224;SDS011;9237;48.590;8.854;2023-03-22T13:42:53;0.68;;;0.68;;
18224;SDS011;9237;48.590;8.854;2023-03-22T13:45:35;0.50;;;0.50;;
18224;SDS011;9237;48.590;8.854;2023-03-22T13:48:03;0.52;;;0.52;;
18224;SDS011;9237;48.590;8.854;2023-03-22T13:50:32;0.52;;;0.52;;
18224;SDS011;9237;48.590;8.854;2023-03-22T13:53:01;0.55;;;0.55;;
18224;SDS011;9237;48.590;8.854;2023-03-22T13:55:35;0.60;;;0.60;;
18224;SDS011;9237;48.590;8.854;2023-03-22T13:58:06;0.60;;;0.60;;
18224;SDS011;9237;48.590;8.854;2023-03-22T14:00:36;0.50;;;0.50;;
18224;SDS011;9237;48.590;8.854;2023-03-22T14:03:13;0.60;;;0.60;;
18224;SDS011;9237;48.590;8.854;2023-03-22T14:05:46;0.60;;;0.60;;
18224;SDS011;9237;48.590;8.854;2023-03-22T14:08:19;0.60;;;0.60;;
18224;SDS011;9237;48.590;8.854;2023-03-22T14:10:51;0.60;;;0.60;;
18224;SDS011;9237;48.590;8.854;2023-03-22T14:13:25;0.50;;;0.50;;
18224;SDS011;9237;48.590;8.854;2023-03-22T14:15:56;0.60;;;0.60;;
18224;SDS011;9237;48.590;8.854;2023-03-22T14:18:28;0.50;;;0.50;;
18224;SDS011;9237;48.590;8.854;2023-03-22T14:20:58;0.50;;;0.50;;
18224;SDS011;9237;48.590;8.854;2023-03-22T14:23:27;0.60;;;0.60;;
18224;SDS011;9237;48.590;8.854;2023-03-22T14:25:59;0.60;;;0.60;;
18224;SDS011;9237;48.590;8.854;2023-03-22T14:28:33;0.50;;;0.50;;
18224;SDS011;9237;48.590;8.854;2023-03-22T14:31:01;0.60;;;0.60;;
18224;SDS011;9237;48.590;8.854;2023-03-22T14:33:29;0.60;;;0.60;;
18224;SDS011;9237;48.590;8.854;2023-03-22T14:36:03;0.60;;;0.60;;
18224;SDS011;9237;48.590;8.854;2023-03-22T14:38:33;0.50;;;0.50;;
18224;SDS011;9237;48.590;8.854;2023-03-22T14:41:07;0.60;;;0.60;;
18224;SDS011;9237;48.590;8.854;2023-03-22T14:43:36;0.50;;;0.50;;
18224;SDS011;9237;48.590;8.854;2023-03-22T14:46:05;0.50;;;0.50;;
18224;SDS011;9237;48.590;8.854;2023-03-22T14:48:38;0.50;;;0.50;;
18224;SDS011;9237;48.590;8.854;2023-03-22T14:51:07;0.55;;;0.55;;
18224;SDS011;9237;48.590;8.854;2023-03-22T14:53:39;0.57;;;0.57;;
18224;SDS011;9237;48.590;8.854;2023-03-22T14:56:10;0.50;;;0.50;;
18224;SDS011;9237;48.590;8.854;2023-03-22T14:58:40;0.50;;;0.50;;
18224;SDS011;9237;48.590;8.854;2023-03-22T15:01:10;0.52;;;0.52;;
18224;SDS011;9237;48.590;8.854;2023-03-22T15:03:41;0.55;;;0.55;;
18224;SDS011;9237;48.590;8.854;2023-03-22T15:06:12;0.60;;;0.60;;
18224;SDS011;9237;48.590;8.854;2023-03-22T15:08:39;0.50;;;0.50;;
18224;SDS011;9237;48.590;8.854;2023-03-22T15:11:11;0.60;;;0.60;;
18224;SDS011;9237;48.590;8.854;2023-03-22T15:13:40;0.60;;;0.60;;
18224;SDS011;9237;48.590;8.854;2023-03-22T15:16:09;0.60;;;0.60;;
18224;SDS011;9237;48.590;8.854;2023-03-22T15:18:41;0.60;;;0.60;;
18224;SDS011;9237;48.590;8.854;2023-03-22T15:21:10;0.60;;;0.60;;
18224;SDS011;9237;48.590;8.854;2023-03-22T15:23:39;0.60;;;0.60;;
18224;SDS011;9237;48.590;8.854;2023-03-22T15:26:13;0.70;;;0.70;;
18224;SDS011;9237;48.590;8.854;2023-03-22T15:28:43;0.70;;;0.70;;
18224;SDS011;9237;48.590;8.854;2023-03-22T15:31:18;0.70;;;0.70;;
18224;SDS011;9237;48.590;8.854;2023-03-22T15:33:46;0.70;;;0.70;;
18224;SDS011;9237;48.590;8.854;2023-03-22T15:36:16;0.60;;;0.60;;
18224;SDS011;9237;48.590;8.854;2023-03-22T15:38:45;0.60;;;0.60;;